createdAt,value
2023-01-29T03:10:16.415Z,-6.48
2023-01-29T03:12:48.507Z,-6.31
2023-01-29T03:15:20.574Z,-5.94
2023-01-29T03:18:07.298Z,-6.78
2023-01-29T03:20:39.888Z,-6.99
2023-01-29T03:23:14.204Z,-6.38
2023-01-29T03:25:44.721Z,-6.57
2023-01-29T03:28:15.872Z,-6.61
2023-01-29T03:30:50.480Z,-6.80
2023-01-29T03:33:43.648Z,-6.61
2023-01-29T03:36:16.612Z,-6.90
2023-01-29T03:38:44.078Z,-5.81
2023-01-29T03:41:20.080Z,-6.83
2023-01-29T03:43:55.096Z,-6.87
2023-01-29T03:46:27.483Z,-5.47
2023-01-29T03:49:00.571Z,-5.42
2023-01-29T03:51:33.333Z,-5.87
2023-01-29T03:54:08.698Z,-5.77
2023-01-29T04:05:13.611Z,-5.94
2023-01-29T04:07:57.368Z,-6.28
2023-01-29T04:10:27.764Z,-6.67
2023-01-29T05:54:30.590Z,-6.30
2023-01-29T05:56:57.615Z,-7.13
2023-01-29T05:59:24.651Z,-6.39
2023-01-29T06:11:10.108Z,-6.50
2023-01-29T06:25:24.622Z,-7.16
2023-01-29T08:08:20.898Z,-4.16
2023-01-29T08:10:50.283Z,-4.09
2023-01-29T08:13:20.377Z,-4.20
2023-01-29T08:15:47.535Z,-4.26
2023-01-29T08:18:15.209Z,-3.86
2023-01-29T08:20:42.104Z,-3.89
2023-01-29T08:23:15.894Z,-3.73
2023-01-29T08:25:44.409Z,-3.68
2023-01-29T08:28:12.116Z,-3.57
2023-01-29T08:30:39.177Z,-3.53
2023-01-29T08:33:05.775Z,-3.81
2023-01-29T08:35:32.912Z,-3.57
2023-01-29T08:38:01.868Z,-3.33
2023-01-29T08:40:31.816Z,-3.27
2023-01-29T08:43:01.986Z,-3.51
2023-01-29T08:45:29.740Z,-3.18
2023-01-29T08:47:56.640Z,-3.01
2023-01-29T08:50:23.428Z,-3.10
2023-01-29T08:52:50.054Z,-3.14
2023-01-29T08:55:17.167Z,-2.87
2023-01-29T08:57:45.471Z,-2.80
2023-01-29T09:00:13.120Z,-2.97
2023-01-29T09:02:39.763Z,-2.74
2023-01-29T09:05:07.422Z,-2.68
2023-01-29T09:07:34.045Z,-2.65
2023-01-29T09:10:01.330Z,-2.57
2023-01-29T09:12:28.173Z,-2.55
2023-01-29T09:14:56.334Z,-2.43
2023-01-29T09:17:22.858Z,-2.39
2023-01-29T09:19:49.378Z,-2.37
2023-01-29T09:22:15.936Z,-2.28
2023-01-29T09:24:42.484Z,-2.37
2023-01-29T09:27:09.165Z,-2.09
2023-01-29T09:29:36.137Z,-2.16
2023-01-29T09:32:05.435Z,-1.91
2023-01-29T09:34:33.725Z,-1.84
2023-01-29T09:37:00.309Z,-2.53
2023-01-29T09:39:26.944Z,-1.60
2023-01-29T09:41:59.752Z,-1.54
2023-01-29T09:44:42.659Z,-1.47
2023-01-29T09:47:14.428Z,-1.43
2023-01-29T09:49:45.866Z,-1.33
2023-01-29T09:52:18.975Z,-1.29
2023-01-29T09:54:54.629Z,-1.15
2023-01-29T09:57:25.847Z,-1.14
2023-01-29T09:59:53.983Z,-1.05
2023-01-29T10:02:42.973Z,-0.82
2023-01-29T10:05:24.552Z,-0.71
2023-01-29T10:08:13.240Z,-1.09
2023-01-29T10:10:49.182Z,-0.87
2023-01-29T10:13:27.231Z,-0.48
2023-01-29T10:16:08.314Z,-0.57
2023-01-29T10:19:10.524Z,-0.36
2023-01-29T10:21:56.921Z,-0.30
2023-01-29T10:24:29.673Z,-0.38
2023-01-29T10:26:57.452Z,-0.18
2023-01-29T10:29:27.243Z,-0.09
2023-01-29T10:31:56.991Z,0.06
2023-01-29T10:34:31.355Z,0.17
2023-01-29T10:36:59.611Z,0.24
2023-01-29T10:39:29.633Z,0.35
2023-01-29T10:42:13.194Z,0.42
2023-01-29T10:44:53.510Z,0.53
2023-01-29T10:47:37.852Z,0.69
2023-01-29T10:50:17.953Z,0.81
2023-01-29T10:53:01.394Z,0.90
2023-01-29T10:55:41.460Z,1.02
2023-01-29T10:58:19.224Z,1.01
2023-01-29T11:00:46.105Z,0.93
2023-01-29T11:03:26.924Z,1.36
2023-01-29T11:06:01.760Z,0.58
2023-01-29T11:08:37.605Z,1.48
2023-01-29T11:11:08.104Z,1.55
2023-01-29T11:13:40.305Z,1.48
2023-01-29T11:16:09.321Z,1.60
2023-01-29T11:18:57.183Z,1.65
2023-01-29T11:21:25.130Z,1.72
2023-01-29T11:24:06.116Z,1.48
2023-01-29T11:26:37.746Z,1.68
2023-01-29T11:29:04.418Z,1.67
2023-01-29T11:31:37.492Z,1.75
2023-01-29T11:34:06.442Z,1.86
2023-01-29T11:36:36.044Z,1.84
2023-01-29T11:39:18.139Z,1.80
2023-01-29T11:41:49.417Z,1.76
2023-01-29T11:44:21.309Z,1.91
2023-01-29T11:46:49.565Z,1.84
2023-01-29T11:49:32.846Z,1.92
2023-01-29T11:52:02.088Z,1.88
2023-01-29T11:54:34.362Z,1.67
2023-01-29T11:57:02.407Z,1.84
2023-01-29T11:59:38.047Z,1.89
2023-01-29T12:02:19.121Z,2.05
2023-01-29T12:04:46.571Z,2.11
2023-01-29T12:07:16.140Z,2.18
2023-01-29T12:09:52.243Z,2.29
2023-01-29T12:12:28.798Z,2.40
2023-01-29T12:15:16.838Z,2.48
2023-01-29T12:17:50.821Z,2.30
2023-01-29T12:20:24.123Z,2.32
2023-01-29T12:22:59.137Z,2.54
2023-01-29T12:25:41.594Z,2.33
2023-01-29T12:28:19.215Z,2.32
2023-01-29T12:30:55.556Z,2.50
2023-01-29T12:33:35.326Z,2.32
2023-01-29T12:36:10.895Z,2.32
2023-01-29T12:38:37.793Z,2.23
2023-01-29T12:41:13.829Z,2.30
2023-01-29T12:43:46.000Z,2.70
2023-01-29T12:46:21.600Z,2.82
2023-01-29T12:48:50.381Z,2.84
2023-01-29T12:51:19.356Z,2.84
2023-01-29T12:53:54.026Z,2.89
2023-01-29T12:56:29.072Z,2.75
2023-01-29T12:58:58.844Z,2.55
2023-01-29T13:01:29.580Z,2.93
2023-01-29T13:04:01.654Z,2.90
2023-01-29T13:06:33.850Z,3.09
2023-01-29T13:09:04.590Z,3.35
2023-01-29T13:11:38.211Z,3.32
2023-01-29T13:14:13.968Z,3.47
2023-01-29T13:16:45.283Z,3.47
2023-01-29T13:19:21.892Z,3.58
2023-01-29T13:21:48.826Z,3.56
2023-01-29T13:24:18.462Z,3.59
2023-01-29T13:26:48.586Z,3.49
2023-01-29T13:29:23.914Z,3.40
2023-01-29T13:31:54.503Z,3.14
2023-01-29T13:34:25.584Z,3.30
2023-01-29T13:36:57.354Z,3.47
2023-01-29T13:39:30.453Z,3.29
2023-01-29T13:42:03.887Z,3.31
2023-01-29T13:44:35.560Z,3.16
2023-01-29T13:47:04.446Z,3.13
2023-01-29T13:49:39.254Z,3.28
2023-01-29T13:52:30.910Z,3.31
2023-01-29T13:55:00.770Z,3.36
2023-01-29T13:57:50.701Z,3.29
2023-01-29T14:00:57.017Z,3.33
2023-01-29T14:04:04.249Z,3.39
2023-01-29T14:06:50.445Z,3.67
2023-01-29T14:09:34.732Z,3.84
2023-01-29T14:12:03.682Z,3.77
2023-01-29T14:15:01.566Z,3.74
2023-01-29T14:17:30.180Z,3.69
2023-01-29T14:20:02.226Z,3.62
2023-01-29T14:22:30.682Z,3.76
2023-01-29T14:25:03.977Z,3.83
2023-01-29T14:27:31.873Z,3.84
2023-01-29T14:30:07.462Z,4.05
2023-01-29T14:32:34.371Z,4.06
2023-01-29T14:35:03.585Z,3.88
2023-01-29T14:37:34.149Z,4.12
2023-01-29T14:40:19.437Z,4.07
2023-01-29T14:42:57.177Z,4.09
2023-01-29T14:45:28.843Z,4.11
2023-01-29T14:47:58.246Z,4.15
2023-01-29T14:50:43.561Z,4.17
2023-01-29T14:53:14.485Z,3.84
2023-01-29T14:55:44.310Z,3.58
2023-01-29T14:58:14.619Z,3.95
2023-01-29T15:00:45.030Z,3.85
2023-01-29T15:03:20.249Z,3.80
2023-01-29T15:05:49.313Z,3.57
2023-01-29T15:08:23.102Z,3.71
2023-01-29T15:10:54.332Z,3.67
2023-01-29T15:13:28.447Z,3.59
2023-01-29T15:16:03.907Z,3.56
2023-01-29T15:18:34.992Z,3.41
2023-01-29T15:21:04.727Z,3.28
2023-01-29T15:23:33.764Z,3.28
2023-01-29T15:26:04.342Z,3.01
2023-01-29T15:28:32.833Z,3.16
2023-01-29T15:31:03.566Z,3.15
2023-01-29T15:33:31.895Z,3.13
2023-01-29T15:36:08.567Z,3.12
2023-01-29T15:38:35.640Z,3.07
2023-01-29T15:41:14.799Z,3.08
2023-01-29T15:43:44.527Z,3.04
2023-01-29T15:46:20.585Z,2.96
2023-01-29T15:48:48.969Z,2.98
2023-01-29T15:51:17.674Z,2.95
2023-01-29T15:53:50.129Z,2.84
2023-01-29T15:56:21.623Z,2.90
2023-01-29T15:58:49.915Z,2.84
2023-01-29T16:01:18.197Z,2.70
2023-01-29T16:03:46.155Z,2.78
2023-01-29T16:06:12.979Z,2.58
2023-01-29T16:08:41.963Z,2.61
2023-01-29T16:11:11.320Z,2.68
2023-01-29T16:13:41.348Z,2.63
2023-01-29T16:16:24.069Z,2.56
2023-01-29T16:18:59.902Z,2.48
2023-01-29T16:21:30.164Z,2.40
2023-01-29T16:23:59.130Z,2.38
2023-01-29T16:26:28.265Z,2.27
2023-01-29T16:28:55.489Z,2.18
2023-01-29T16:31:27.584Z,2.31
2023-01-29T16:33:57.025Z,2.29
2023-01-29T16:36:26.710Z,2.29
2023-01-29T16:38:55.349Z,2.27
2023-01-29T16:41:30.371Z,2.30
2023-01-29T16:43:58.980Z,2.10
2023-01-29T16:46:32.777Z,2.13
2023-01-29T16:49:00.124Z,2.18
2023-01-29T16:51:29.762Z,2.18
2023-01-29T16:53:59.693Z,2.18
2023-01-29T16:56:32.187Z,2.16
2023-01-29T16:59:00.101Z,2.13
2023-01-29T17:01:30.120Z,2.04
2023-01-29T17:04:02.800Z,2.07
2023-01-29T17:06:32.373Z,2.12
2023-01-29T17:08:59.552Z,1.73
2023-01-29T17:11:31.832Z,1.97
2023-01-29T17:13:59.240Z,2.08
2023-01-29T17:16:29.567Z,1.99
2023-01-29T17:18:56.363Z,2.01
2023-01-29T17:21:23.428Z,1.99
2023-01-29T17:23:50.695Z,1.93
2023-01-29T17:26:18.398Z,1.80
2023-01-29T17:28:46.365Z,1.94
2023-01-29T17:31:13.231Z,1.94
2023-01-29T17:33:43.262Z,1.86
2023-01-29T17:36:11.350Z,1.86
2023-01-29T17:38:38.045Z,1.82
2023-01-29T17:41:08.064Z,1.88
2023-01-29T17:43:34.932Z,1.93
2023-01-29T17:46:01.581Z,1.90
2023-01-29T17:48:29.704Z,1.92
2023-01-29T17:51:00.500Z,1.89
2023-01-29T17:53:43.328Z,1.84
2023-01-29T17:56:15.527Z,1.84
2023-01-29T17:58:42.153Z,1.85
2023-01-29T18:01:08.667Z,1.90
2023-01-29T18:03:35.297Z,1.90
2023-01-29T18:06:03.449Z,1.86
2023-01-29T18:08:33.676Z,1.82
2023-01-29T18:11:00.926Z,1.80
2023-01-29T18:13:27.480Z,1.78
2023-01-29T18:15:54.193Z,1.78
2023-01-29T18:18:22.993Z,1.68
2023-01-29T18:20:50.303Z,1.61
2023-01-29T18:23:18.227Z,1.62
2023-01-29T18:25:45.338Z,1.66
2023-01-29T18:28:14.479Z,1.52
2023-01-29T18:30:41.351Z,1.55
2023-01-29T18:33:07.908Z,1.56
2023-01-29T18:35:34.498Z,1.47
2023-01-29T18:38:01.062Z,1.45
2023-01-29T18:40:29.016Z,1.37
2023-01-29T18:42:55.521Z,1.36
2023-01-29T18:45:22.021Z,1.38
2023-01-29T18:47:48.654Z,1.45
2023-01-29T18:50:15.669Z,1.37
2023-01-29T18:52:43.704Z,1.32
2023-01-29T18:55:10.557Z,1.28
2023-01-29T18:58:27.446Z,1.23
2023-01-29T19:00:25.120Z,1.26
2023-01-29T19:02:51.624Z,1.09
2023-01-29T19:05:18.814Z,1.36
2023-01-29T19:07:45.671Z,1.14
2023-01-29T19:10:12.356Z,1.38
2023-01-29T19:12:40.287Z,1.37
2023-01-29T19:15:08.157Z,1.42
2023-01-29T19:17:34.765Z,1.41
2023-01-29T19:20:01.491Z,1.46
2023-01-29T19:22:28.162Z,1.48
2023-01-29T19:24:54.823Z,1.52
2023-01-29T19:27:21.324Z,1.53
2023-01-29T19:29:49.314Z,1.42
2023-01-29T19:32:15.827Z,1.55
2023-01-29T19:34:42.488Z,1.47
2023-01-29T19:37:09.048Z,1.52
2023-01-29T19:39:35.717Z,1.48
2023-01-29T19:42:02.345Z,1.31
2023-01-29T19:44:28.979Z,1.39
2023-01-29T19:46:56.849Z,1.49
2023-01-29T19:49:25.083Z,1.45
2023-01-29T19:51:51.719Z,1.45
2023-01-29T19:54:18.293Z,1.46
2023-01-29T19:56:44.777Z,1.51
2023-01-29T19:59:11.637Z,1.41
2023-01-29T20:01:38.254Z,1.47
2023-01-29T20:04:06.227Z,1.51
2023-01-29T20:06:32.774Z,1.47
2023-01-29T20:08:59.415Z,1.48
2023-01-29T20:11:25.903Z,1.44
2023-01-29T20:13:53.258Z,1.49
2023-01-29T20:16:24.762Z,1.58
2023-01-29T20:18:53.018Z,1.60
2023-01-29T20:21:21.237Z,1.60
2023-01-29T20:23:49.498Z,1.53
2023-01-29T20:26:16.718Z,1.55
2023-01-29T20:28:45.349Z,1.66
2023-01-29T20:31:11.898Z,1.57
2023-01-29T20:33:39.658Z,1.57
2023-01-29T20:36:08.323Z,1.59
2023-01-29T20:38:36.576Z,1.65
2023-01-29T20:41:04.876Z,1.55
2023-01-29T20:43:31.590Z,1.57
2023-01-29T20:45:58.527Z,1.66
2023-01-29T20:48:25.180Z,1.68
2023-01-29T20:50:51.785Z,1.76
2023-01-29T20:53:18.458Z,1.67
2023-01-29T20:55:46.360Z,1.69
2023-01-29T20:58:13.092Z,1.77
2023-01-29T21:00:39.763Z,1.75
2023-01-29T21:03:06.334Z,1.73
2023-01-29T21:05:32.877Z,1.69
2023-01-29T21:07:59.484Z,1.62
2023-01-29T21:10:26.224Z,1.58
2023-01-29T21:12:54.165Z,1.68
2023-01-29T21:15:20.865Z,1.72
2023-01-29T21:17:47.508Z,1.73
2023-01-29T21:20:14.230Z,1.69
2023-01-29T21:22:40.857Z,1.74
2023-01-29T21:25:08.403Z,1.72
2023-01-29T21:27:35.110Z,1.75
2023-01-29T21:30:03.491Z,1.70
2023-01-29T21:32:30.094Z,1.82
2023-01-29T21:34:56.617Z,1.79
2023-01-29T21:37:23.245Z,1.75
2023-01-29T21:39:49.791Z,1.79
2023-01-29T21:42:16.361Z,1.70
2023-01-29T21:44:42.926Z,1.78
2023-01-29T21:47:10.891Z,1.70
2023-01-29T21:49:38.637Z,1.74
2023-01-29T21:52:05.261Z,1.69
2023-01-29T21:54:31.844Z,1.70
2023-01-29T21:56:58.479Z,1.80
2023-01-29T21:59:24.996Z,1.84
2023-01-29T22:01:51.704Z,1.83
2023-01-29T22:04:19.571Z,1.74
2023-01-29T22:06:46.171Z,1.84
2023-01-29T22:09:12.915Z,1.76
2023-01-29T22:11:40.649Z,1.75
2023-01-29T22:14:07.480Z,1.78
2023-01-29T22:16:34.410Z,1.72
2023-01-29T22:19:01.074Z,1.87
2023-01-29T22:21:29.175Z,1.92
2023-01-29T22:23:55.921Z,1.88
2023-01-29T22:26:22.697Z,1.94
2023-01-29T22:28:49.221Z,1.95
2023-01-29T22:31:15.800Z,1.97
2023-01-29T22:33:43.232Z,2.02
2023-01-29T22:36:10.040Z,2.00
2023-01-29T22:38:37.973Z,1.99
2023-01-29T22:41:05.021Z,1.85
2023-01-29T22:43:31.685Z,1.99
2023-01-29T22:45:58.288Z,1.97
2023-01-29T22:48:24.993Z,2.01
2023-01-29T22:50:55.989Z,2.04
2023-01-29T22:53:22.588Z,2.01
2023-01-29T22:55:55.399Z,1.95
2023-01-29T22:58:22.075Z,1.93
2023-01-29T23:00:50.111Z,2.00
2023-01-29T23:03:16.772Z,1.79
2023-01-29T23:05:43.287Z,1.89
2023-01-29T23:08:10.167Z,1.86
2023-01-29T23:10:37.357Z,1.99
2023-01-29T23:13:05.534Z,2.00
2023-01-29T23:15:32.309Z,1.91
2023-01-29T23:17:58.904Z,1.92
2023-01-29T23:20:25.460Z,1.92
2023-01-29T23:22:52.305Z,2.05
2023-01-29T23:25:18.844Z,2.14
2023-01-29T23:27:45.394Z,2.10
2023-01-29T23:30:14.223Z,2.12
2023-01-29T23:32:41.167Z,2.17
2023-01-29T23:35:08.462Z,2.17
2023-01-29T23:37:35.027Z,2.18
2023-01-29T23:40:01.609Z,2.16
2023-01-29T23:42:28.465Z,2.19
2023-01-29T23:44:55.017Z,2.19
2023-01-29T23:47:22.929Z,2.20
2023-01-29T23:49:49.436Z,2.21
2023-01-29T23:52:16.099Z,2.22
2023-01-29T23:54:42.604Z,2.14
2023-01-29T23:57:09.229Z,2.07
2023-01-29T23:59:35.777Z,1.94
